NZCH/CHC METAR and TAF weather

Enter ICAO airport designator
Station Type Date Time Source
NZCH METAR 2021/05/13 06:00 UTC NOAA

NZCH 130600Z AUTO 05010KT 9999 NCD 08/03 Q1026 NOSIG


Station Type Date Time Source
NZCH Decoded METAR 2021/05/13 06:00 UTC NOAA

Christchurch, New Zealand (NZCH) 43-29S 172-33E 30M
May 13, 2021 - 02:00 AM EDT / 2021.05.13 0600 UTC
Wind: from the NE (050 degrees) at 12 MPH (10 KT):0
Visibility: greater than 7 mile(s):0
Temperature: 46 F (8 C)
Dew Point: 37 F (3 C)
Relative Humidity: 70%
Pressure (altimeter): 30.30 in. Hg (1026 hPa)
ob: NZCH 130600Z AUTO 05010KT 9999 NCD 08/03 Q1026 NOSIG
cycle: 6

Station Type Date Time Source
NZCH TAF 2021/05/13 06:36 UTC NOAA

TAF NZCH 130525Z 1306/1406 04012KT CAVOK
BECMG 1320/1322 04018G30KT

Example: see airport list